Hovedside
METAR-TAF:

METAR-TAF

Lufthavner :

Alta lufthavn

Alta, Norge

breddegrad: 69-59N, lengdegrad: 023-22E, høyde over havet: 0 m

Gjeldene værobservasjon

Denne rapporten ble laget for 36 minutter siden, klokken 05:50 UTC
Vind 2 kt fra skiftende retning
Temperatur -3°C
Luftfuktighet 86%
Trykk 1011 hPa
Sikt 10 km eller mer
Spredte skyer i en høyde av 3300 ft
Brutte skyer i en høyde av 4000 ft

METAR: ENAT 150550Z VRB02KT 9999 SCT033 BKN040 M03/M05 Q1011 RMK WIND 700FT VRB02KT

Tid: 07:26 (06:26 UTC)

Varsel

Denne rapporten ble laget for 1 time og 26 minutter siden, klokken 05:00 UTC
Varsel gyldig fra 15. klokken 06 UTC til 15. klokken 15 UTC
Vind 5 kt fra Sør-sørøst
Sikt 10 km eller mer
Brutte skyer i en høyde av 3000 ft

TAF: ENAT 150500Z 1506/1515 16005KT 9999 BKN030

Værobservasjoner og værvarsel for over 4000 flyplasser (METAR- og TAF-rapporter).

Tilgjengelige stasjoner er representert av de røde og gule prikkene på kartet.

Hold musepekeren over prikken for å se navnet på stasjonen.

Klikk så for å se værobservasjoner og -varsler.

For å forandre kartet kan du klikke på den grønne knappen med svart kryss for å zoome inn, på den grønne knappen med strek for å zoome ut, eller på de grønne pilene for å se tilstøtende kart.


METAR-TAF: